sensor_id;sensor_type;location;lat;lon;timestamp;P1;durP1;ratioP1;P2;durP2;ratioP2
16330;SDS011;8275;48.206;16.340;2023-10-19T00:00:56;14.50;;;11.75;;
16330;SDS011;8275;48.206;16.340;2023-10-19T00:03:24;13.20;;;10.57;;
16330;SDS011;8275;48.206;16.340;2023-10-19T00:05:55;11.18;;;10.20;;
16330;SDS011;8275;48.206;16.340;2023-10-19T00:08:23;13.25;;;10.85;;
16330;SDS011;8275;48.206;16.340;2023-10-19T00:10:53;11.77;;;10.55;;
16330;SDS011;8275;48.206;16.340;2023-10-19T00:13:29;12.68;;;11.10;;
16330;SDS011;8275;48.206;16.340;2023-10-19T00:15:57;12.60;;;11.30;;
16330;SDS011;8275;48.206;16.340;2023-10-19T00:18:25;13.38;;;11.18;;
16330;SDS011;8275;48.206;16.340;2023-10-19T00:20:58;12.77;;;11.50;;
16330;SDS011;8275;48.206;16.340;2023-10-19T00:23:31;11.43;;;10.30;;
16330;SDS011;8275;48.206;16.340;2023-10-19T00:26:02;11.38;;;10.27;;
16330;SDS011;8275;48.206;16.340;2023-10-19T00:28:36;14.13;;;11.10;;
16330;SDS011;8275;48.206;16.340;2023-10-19T00:31:05;10.15;;;9.15;;
16330;SDS011;8275;48.206;16.340;2023-10-19T00:33:35;11.75;;;10.73;;
16330;SDS011;8275;48.206;16.340;2023-10-19T00:36:06;13.00;;;11.70;;
16330;SDS011;8275;48.206;16.340;2023-10-19T00:38:35;14.82;;;12.20;;
16330;SDS011;8275;48.206;16.340;2023-10-19T00:41:17;13.18;;;10.70;;
16330;SDS011;8275;48.206;16.340;2023-10-19T00:43:50;13.13;;;11.82;;
16330;SDS011;8275;48.206;16.340;2023-10-19T00:46:29;13.00;;;11.63;;
16330;SDS011;8275;48.206;16.340;2023-10-19T00:49:05;12.82;;;10.93;;
16330;SDS011;8275;48.206;16.340;2023-10-19T00:51:36;12.30;;;11.05;;
16330;SDS011;8275;48.206;16.340;2023-10-19T00:54:21;13.20;;;11.88;;
16330;SDS011;8275;48.206;16.340;2023-10-19T00:57:00;11.77;;;10.68;;
16330;SDS011;8275;48.206;16.340;2023-10-19T00:59:33;14.85;;;13.48;;
16330;SDS011;8275;48.206;16.340;2023-10-19T01:02:09;13.35;;;12.05;;
16330;SDS011;8275;48.206;16.340;2023-10-19T01:04:46;12.52;;;11.40;;
16330;SDS011;8275;48.206;16.340;2023-10-19T01:07:23;12.38;;;11.07;;
16330;SDS011;8275;48.206;16.340;2023-10-19T01:09:55;11.80;;;10.60;;
16330;SDS011;8275;48.206;16.340;2023-10-19T01:12:27;13.38;;;12.07;;
16330;SDS011;8275;48.206;16.340;2023-10-19T01:15:06;12.63;;;10.77;;
16330;SDS011;8275;48.206;16.340;2023-10-19T01:17:39;12.15;;;11.13;;
16330;SDS011;8275;48.206;16.340;2023-10-19T01:20:11;13.00;;;11.68;;
16330;SDS011;8275;48.206;16.340;2023-10-19T01:22:50;13.20;;;11.90;;
16330;SDS011;8275;48.206;16.340;2023-10-19T01:25:48;13.55;;;10.60;;
16330;SDS011;8275;48.206;16.340;2023-10-19T01:28:26;13.73;;;12.32;;
16330;SDS011;8275;48.206;16.340;2023-10-19T01:31:09;13.45;;;12.10;;
16330;SDS011;8275;48.206;16.340;2023-10-19T01:33:44;13.18;;;11.95;;
16330;SDS011;8275;48.206;16.340;2023-10-19T01:36:12;14.02;;;12.63;;
16330;SDS011;8275;48.206;16.340;2023-10-19T01:38:53;10.98;;;9.98;;
16330;SDS011;8275;48.206;16.340;2023-10-19T01:41:22;11.30;;;10.13;;
16330;SDS011;8275;48.206;16.340;2023-10-19T01:43:53;12.25;;;11.23;;
16330;SDS011;8275;48.206;16.340;2023-10-19T01:46:22;17.88;;;12.73;;
16330;SDS011;8275;48.206;16.340;2023-10-19T01:48:52;14.02;;;11.70;;
16330;SDS011;8275;48.206;16.340;2023-10-19T01:51:22;12.63;;;11.35;;
16330;SDS011;8275;48.206;16.340;2023-10-19T01:53:54;15.68;;;12.00;;
16330;SDS011;8275;48.206;16.340;2023-10-19T01:56:22;11.85;;;10.65;;
16330;SDS011;8275;48.206;16.340;2023-10-19T01:58:51;15.18;;;11.93;;
16330;SDS011;8275;48.206;16.340;2023-10-19T02:01:21;14.07;;;10.85;;
16330;SDS011;8275;48.206;16.340;2023-10-19T02:03:56;14.02;;;12.82;;
16330;SDS011;8275;48.206;16.340;2023-10-19T02:06:27;16.65;;;12.27;;
16330;SDS011;8275;48.206;16.340;2023-10-19T02:09:04;10.80;;;9.88;;
16330;SDS011;8275;48.206;16.340;2023-10-19T02:11:43;11.75;;;10.65;;
16330;SDS011;8275;48.206;16.340;2023-10-19T02:14:14;11.52;;;10.23;;
16330;SDS011;8275;48.206;16.340;2023-10-19T02:16:42;12.52;;;10.65;;
16330;SDS011;8275;48.206;16.340;2023-10-19T02:19:13;12.20;;;10.70;;
16330;SDS011;8275;48.206;16.340;2023-10-19T02:21:41;11.65;;;10.55;;
16330;SDS011;8275;48.206;16.340;2023-10-19T02:24:15;13.65;;;12.45;;
16330;SDS011;8275;48.206;16.340;2023-10-19T02:26:43;12.63;;;11.43;;
16330;SDS011;8275;48.206;16.340;2023-10-19T02:29:13;14.27;;;12.88;;
16330;SDS011;8275;48.206;16.340;2023-10-19T02:31:43;13.07;;;11.85;;
16330;SDS011;8275;48.206;16.340;2023-10-19T02:34:12;12.60;;;11.35;;
16330;SDS011;8275;48.206;16.340;2023-10-19T02:36:43;12.57;;;11.38;;
16330;SDS011;8275;48.206;16.340;2023-10-19T02:39:15;15.15;;;13.63;;
16330;SDS011;8275;48.206;16.340;2023-10-19T02:41:44;13.90;;;12.02;;
16330;SDS011;8275;48.206;16.340;2023-10-19T02:44:15;13.30;;;11.77;;
16330;SDS011;8275;48.206;16.340;2023-10-19T02:46:49;13.55;;;12.18;;
16330;SDS011;8275;48.206;16.340;2023-10-19T02:49:21;14.05;;;12.75;;
16330;SDS011;8275;48.206;16.340;2023-10-19T02:51:50;15.43;;;13.98;;
16330;SDS011;8275;48.206;16.340;2023-10-19T02:54:20;15.68;;;13.30;;
16330;SDS011;8275;48.206;16.340;2023-10-19T02:56:52;14.35;;;12.95;;
16330;SDS011;8275;48.206;16.340;2023-10-19T02:59:26;13.38;;;12.00;;
16330;SDS011;8275;48.206;16.340;2023-10-19T03:01:55;14.95;;;13.45;;
16330;SDS011;8275;48.206;16.340;2023-10-19T03:04:34;16.48;;;14.10;;
16330;SDS011;8275;48.206;16.340;2023-10-19T03:07:02;14.20;;;12.50;;
16330;SDS011;8275;48.206;16.340;2023-10-19T03:09:32;14.88;;;13.38;;
16330;SDS011;8275;48.206;16.340;2023-10-19T03:12:03;14.27;;;12.93;;
16330;SDS011;8275;48.206;16.340;2023-10-19T03:14:36;14.05;;;12.70;;
16330;SDS011;8275;48.206;16.340;2023-10-19T03:17:05;15.80;;;14.30;;
16330;SDS011;8275;48.206;16.340;2023-10-19T03:19:35;17.65;;;14.82;;
16330;SDS011;8275;48.206;16.340;2023-10-19T03:22:04;15.63;;;14.20;;
16330;SDS011;8275;48.206;16.340;2023-10-19T03:24:34;13.98;;;12.77;;
16330;SDS011;8275;48.206;16.340;2023-10-19T03:27:08;14.02;;;12.57;;
16330;SDS011;8275;48.206;16.340;2023-10-19T03:29:39;15.00;;;13.57;;
16330;SDS011;8275;48.206;16.340;2023-10-19T03:32:12;15.30;;;13.75;;
16330;SDS011;8275;48.206;16.340;2023-10-19T03:34:42;14.10;;;12.75;;
16330;SDS011;8275;48.206;16.340;2023-10-19T03:37:14;15.07;;;13.65;;
16330;SDS011;8275;48.206;16.340;2023-10-19T03:39:48;16.63;;;15.02;;
16330;SDS011;8275;48.206;16.340;2023-10-19T03:42:17;18.02;;;16.30;;
16330;SDS011;8275;48.206;16.340;2023-10-19T03:44:47;16.73;;;15.02;;
16330;SDS011;8275;48.206;16.340;2023-10-19T03:47:20;16.10;;;14.60;;
16330;SDS011;8275;48.206;16.340;2023-10-19T03:49:54;15.30;;;13.75;;
16330;SDS011;8275;48.206;16.340;2023-10-19T03:52:22;15.63;;;14.20;;
16330;SDS011;8275;48.206;16.340;2023-10-19T03:54:58;14.32;;;12.95;;
16330;SDS011;8275;48.206;16.340;2023-10-19T03:57:27;13.50;;;12.23;;
16330;SDS011;8275;48.206;16.340;2023-10-19T03:59:56;14.27;;;12.88;;
16330;SDS011;8275;48.206;16.340;2023-10-19T04:02:25;16.92;;;14.15;;
16330;SDS011;8275;48.206;16.340;2023-10-19T04:04:56;22.27;;;15.20;;
16330;SDS011;8275;48.206;16.340;2023-10-19T04:07:24;16.15;;;14.00;;
16330;SDS011;8275;48.206;16.340;2023-10-19T04:09:54;15.07;;;13.68;;
16330;SDS011;8275;48.206;16.340;2023-10-19T04:12:38;20.67;;;14.13;;
16330;SDS011;8275;48.206;16.340;2023-10-19T04:15:09;17.55;;;15.95;;
16330;SDS011;8275;48.206;16.340;2023-10-19T04:17:42;17.10;;;15.40;;
16330;SDS011;8275;48.206;16.340;2023-10-19T04:20:12;15.35;;;13.77;;
16330;SDS011;8275;48.206;16.340;2023-10-19T04:22:55;15.55;;;13.57;;
16330;SDS011;8275;48.206;16.340;2023-10-19T04:25:32;18.77;;;14.70;;
16330;SDS011;8275;48.206;16.340;2023-10-19T04:28:02;17.73;;;15.95;;
16330;SDS011;8275;48.206;16.340;2023-10-19T04:30:31;14.43;;;13.02;;
16330;SDS011;8275;48.206;16.340;2023-10-19T04:33:03;16.77;;;15.18;;
16330;SDS011;8275;48.206;16.340;2023-10-19T04:35:35;14.63;;;13.25;;
16330;SDS011;8275;48.206;16.340;2023-10-19T04:38:08;18.02;;;15.40;;
16330;SDS011;8275;48.206;16.340;2023-10-19T04:40:36;23.92;;;16.40;;
16330;SDS011;8275;48.206;16.340;2023-10-19T04:43:06;20.02;;;15.68;;
16330;SDS011;8275;48.206;16.340;2023-10-19T04:45:34;15.27;;;13.82;;
16330;SDS011;8275;48.206;16.340;2023-10-19T04:48:07;17.67;;;15.85;;
16330;SDS011;8275;48.206;16.340;2023-10-19T04:50:36;13.88;;;12.60;;
16330;SDS011;8275;48.206;16.340;2023-10-19T04:53:06;16.88;;;15.27;;
16330;SDS011;8275;48.206;16.340;2023-10-19T04:55:34;14.48;;;13.07;;
16330;SDS011;8275;48.206;16.340;2023-10-19T04:58:05;17.08;;;15.38;;
16330;SDS011;8275;48.206;16.340;2023-10-19T05:00:33;15.73;;;14.13;;
16330;SDS011;8275;48.206;16.340;2023-10-19T05:03:02;17.52;;;15.85;;
16330;SDS011;8275;48.206;16.340;2023-10-19T05:05:32;14.85;;;13.30;;
16330;SDS011;8275;48.206;16.340;2023-10-19T05:08:02;16.98;;;15.25;;
16330;SDS011;8275;48.206;16.340;2023-10-19T05:10:31;15.00;;;13.75;;
16330;SDS011;8275;48.206;16.340;2023-10-19T05:13:00;13.85;;;12.65;;
16330;SDS011;8275;48.206;16.340;2023-10-19T05:15:31;16.92;;;15.23;;
16330;SDS011;8275;48.206;16.340;2023-10-19T05:18:02;15.77;;;14.18;;
16330;SDS011;8275;48.206;16.340;2023-10-19T05:20:31;16.23;;;14.52;;
16330;SDS011;8275;48.206;16.340;2023-10-19T05:23:00;16.27;;;14.63;;
16330;SDS011;8275;48.206;16.340;2023-10-19T05:25:30;16.70;;;15.02;;
16330;SDS011;8275;48.206;16.340;2023-10-19T05:27:59;15.75;;;14.43;;
16330;SDS011;8275;48.206;16.340;2023-10-19T05:30:27;17.42;;;14.20;;
16330;SDS011;8275;48.206;16.340;2023-10-19T05:32:57;15.95;;;13.32;;
16330;SDS011;8275;48.206;16.340;2023-10-19T05:35:28;15.57;;;14.07;;
16330;SDS011;8275;48.206;16.340;2023-10-19T05:38:01;14.20;;;12.95;;
16330;SDS011;8275;48.206;16.340;2023-10-19T05:40:30;19.42;;;16.38;;
16330;SDS011;8275;48.206;16.340;2023-10-19T05:42:58;18.13;;;12.77;;
16330;SDS011;8275;48.206;16.340;2023-10-19T05:45:27;16.42;;;14.82;;
16330;SDS011;8275;48.206;16.340;2023-10-19T05:47:57;15.43;;;13.82;;
16330;SDS011;8275;48.206;16.340;2023-10-19T05:50:26;16.58;;;14.93;;
16330;SDS011;8275;48.206;16.340;2023-10-19T05:52:55;15.50;;;14.00;;
16330;SDS011;8275;48.206;16.340;2023-10-19T05:55:24;16.25;;;14.57;;
16330;SDS011;8275;48.206;16.340;2023-10-19T05:57:52;16.83;;;15.23;;
16330;SDS011;8275;48.206;16.340;2023-10-19T06:00:21;18.52;;;14.77;;
16330;SDS011;8275;48.206;16.340;2023-10-19T06:02:52;15.20;;;13.60;;
16330;SDS011;8275;48.206;16.340;2023-10-19T06:05:22;15.90;;;14.27;;
16330;SDS011;8275;48.206;16.340;2023-10-19T06:07:51;18.33;;;16.60;;
16330;SDS011;8275;48.206;16.340;2023-10-19T06:10:20;16.73;;;14.82;;
16330;SDS011;8275;48.206;16.340;2023-10-19T06:12:50;15.38;;;13.95;;
16330;SDS011;8275;48.206;16.340;2023-10-19T06:15:20;15.50;;;14.00;;
16330;SDS011;8275;48.206;16.340;2023-10-19T06:17:50;15.80;;;14.10;;
16330;SDS011;8275;48.206;16.340;2023-10-19T06:20:19;16.25;;;14.65;;
16330;SDS011;8275;48.206;16.340;2023-10-19T06:22:52;15.98;;;14.55;;
16330;SDS011;8275;48.206;16.340;2023-10-19T06:25:23;15.35;;;13.85;;
16330;SDS011;8275;48.206;16.340;2023-10-19T06:27:52;15.27;;;13.40;;
16330;SDS011;8275;48.206;16.340;2023-10-19T06:30:24;16.45;;;15.00;;
16330;SDS011;8275;48.206;16.340;2023-10-19T06:32:53;14.82;;;13.48;;
16330;SDS011;8275;48.206;16.340;2023-10-19T06:35:28;16.63;;;14.93;;
16330;SDS011;8275;48.206;16.340;2023-10-19T06:38:00;16.25;;;14.65;;
16330;SDS011;8275;48.206;16.340;2023-10-19T06:40:30;14.48;;;13.20;;
16330;SDS011;8275;48.206;16.340;2023-10-19T06:43:02;15.07;;;13.68;;
16330;SDS011;8275;48.206;16.340;2023-10-19T06:45:32;16.08;;;14.50;;
16330;SDS011;8275;48.206;16.340;2023-10-19T06:48:01;26.58;;;14.10;;
16330;SDS011;8275;48.206;16.340;2023-10-19T06:50:30;15.88;;;14.38;;
16330;SDS011;8275;48.206;16.340;2023-10-19T06:53:01;15.00;;;13.57;;
16330;SDS011;8275;48.206;16.340;2023-10-19T06:55:31;15.35;;;13.95;;
16330;SDS011;8275;48.206;16.340;2023-10-19T06:58:00;15.25;;;13.88;;
16330;SDS011;8275;48.206;16.340;2023-10-19T07:00:29;38.03;;;14.90;;
16330;SDS011;8275;48.206;16.340;2023-10-19T07:02:57;18.00;;;16.15;;
16330;SDS011;8275;48.206;16.340;2023-10-19T07:05:28;24.73;;;14.77;;
16330;SDS011;8275;48.206;16.340;2023-10-19T07:07:57;15.00;;;13.50;;
16330;SDS011;8275;48.206;16.340;2023-10-19T07:10:30;14.70;;;13.27;;
16330;SDS011;8275;48.206;16.340;2023-10-19T07:12:59;15.25;;;13.75;;
16330;SDS011;8275;48.206;16.340;2023-10-19T07:15:28;16.15;;;14.52;;
16330;SDS011;8275;48.206;16.340;2023-10-19T07:17:57;14.45;;;13.07;;
16330;SDS011;8275;48.206;16.340;2023-10-19T07:20:26;15.23;;;13.98;;
16330;SDS011;8275;48.206;16.340;2023-10-19T07:22:59;13.68;;;12.50;;
16330;SDS011;8275;48.206;16.340;2023-10-19T07:25:35;14.93;;;13.43;;
16330;SDS011;8275;48.206;16.340;2023-10-19T07:28:10;20.98;;;14.48;;
16330;SDS011;8275;48.206;16.340;2023-10-19T07:30:39;15.57;;;14.18;;
16330;SDS011;8275;48.206;16.340;2023-10-19T07:33:08;18.05;;;16.45;;
16330;SDS011;8275;48.206;16.340;2023-10-19T07:35:44;14.95;;;13.55;;
16330;SDS011;8275;48.206;16.340;2023-10-19T07:38:14;17.55;;;14.30;;
16330;SDS011;8275;48.206;16.340;2023-10-19T07:40:44;17.35;;;15.68;;
16330;SDS011;8275;48.206;16.340;2023-10-19T07:43:13;16.73;;;15.00;;
16330;SDS011;8275;48.206;16.340;2023-10-19T07:45:41;17.77;;;16.10;;
16330;SDS011;8275;48.206;16.340;2023-10-19T07:48:10;17.58;;;15.88;;
16330;SDS011;8275;48.206;16.340;2023-10-19T07:50:39;19.52;;;16.27;;
16330;SDS011;8275;48.206;16.340;2023-10-19T07:53:09;18.67;;;16.52;;
16330;SDS011;8275;48.206;16.340;2023-10-19T07:55:38;17.88;;;16.23;;
16330;SDS011;8275;48.206;16.340;2023-10-19T07:58:08;17.17;;;15.18;;
16330;SDS011;8275;48.206;16.340;2023-10-19T08:00:36;17.63;;;15.93;;
16330;SDS011;8275;48.206;16.340;2023-10-19T08:03:05;18.60;;;16.60;;
16330;SDS011;8275;48.206;16.340;2023-10-19T08:05:35;18.45;;;15.18;;
16330;SDS011;8275;48.206;16.340;2023-10-19T08:08:05;18.80;;;16.83;;
16330;SDS011;8275;48.206;16.340;2023-10-19T08:10:34;18.42;;;16.63;;
16330;SDS011;8275;48.206;16.340;2023-10-19T08:13:03;18.73;;;17.05;;
16330;SDS011;8275;48.206;16.340;2023-10-19T08:15:33;18.10;;;15.75;;
16330;SDS011;8275;48.206;16.340;2023-10-19T08:18:03;16.63;;;15.02;;
16330;SDS011;8275;48.206;16.340;2023-10-19T08:20:32;17.60;;;14.80;;
16330;SDS011;8275;48.206;16.340;2023-10-19T08:23:03;23.35;;;16.00;;
16330;SDS011;8275;48.206;16.340;2023-10-19T08:25:32;24.98;;;16.85;;
16330;SDS011;8275;48.206;16.340;2023-10-19T08:28:20;18.85;;;17.05;;
16330;SDS011;8275;48.206;16.340;2023-10-19T08:30:51;17.52;;;15.80;;
16330;SDS011;8275;48.206;16.340;2023-10-19T08:33:27;19.02;;;17.20;;
16330;SDS011;8275;48.206;16.340;2023-10-19T08:36:00;18.42;;;16.63;;
16330;SDS011;8275;48.206;16.340;2023-10-19T08:38:29;18.95;;;17.33;;
16330;SDS011;8275;48.206;16.340;2023-10-19T08:40:59;18.23;;;15.20;;
16330;SDS011;8275;48.206;16.340;2023-10-19T08:43:29;18.77;;;16.15;;
16330;SDS011;8275;48.206;16.340;2023-10-19T08:46:01;17.90;;;16.30;;
16330;SDS011;8275;48.206;16.340;2023-10-19T08:48:33;17.23;;;15.65;;
16330;SDS011;8275;48.206;16.340;2023-10-19T08:51:03;17.88;;;16.10;;
16330;SDS011;8275;48.206;16.340;2023-10-19T08:53:37;16.63;;;15.00;;
16330;SDS011;8275;48.206;16.340;2023-10-19T08:56:07;18.27;;;15.77;;
16330;SDS011;8275;48.206;16.340;2023-10-19T08:58:38;17.40;;;15.73;;
16330;SDS011;8275;48.206;16.340;2023-10-19T09:01:09;18.13;;;16.23;;
16330;SDS011;8275;48.206;16.340;2023-10-19T09:03:38;16.80;;;15.30;;
16330;SDS011;8275;48.206;16.340;2023-10-19T09:06:08;17.10;;;15.40;;
16330;SDS011;8275;48.206;16.340;2023-10-19T09:08:41;18.95;;;15.55;;
16330;SDS011;8275;48.206;16.340;2023-10-19T09:11:13;16.92;;;15.32;;
16330;SDS011;8275;48.206;16.340;2023-10-19T09:13:42;16.08;;;14.65;;
16330;SDS011;8275;48.206;16.340;2023-10-19T09:16:15;16.10;;;14.48;;
16330;SDS011;8275;48.206;16.340;2023-10-19T09:18:45;15.38;;;13.88;;
16330;SDS011;8275;48.206;16.340;2023-10-19T09:21:15;15.90;;;14.52;;
16330;SDS011;8275;48.206;16.340;2023-10-19T09:23:51;16.83;;;15.43;;
16330;SDS011;8275;48.206;16.340;2023-10-19T09:26:22;16.42;;;14.73;;
16330;SDS011;8275;48.206;16.340;2023-10-19T09:28:52;16.23;;;14.60;;
16330;SDS011;8275;48.206;16.340;2023-10-19T09:31:23;15.35;;;13.93;;
16330;SDS011;8275;48.206;16.340;2023-10-19T09:33:52;17.20;;;15.40;;
16330;SDS011;8275;48.206;16.340;2023-10-19T09:36:21;16.20;;;14.70;;
16330;SDS011;8275;48.206;16.340;2023-10-19T09:38:56;16.52;;;14.82;;
16330;SDS011;8275;48.206;16.340;2023-10-19T09:41:25;15.40;;;14.02;;
16330;SDS011;8275;48.206;16.340;2023-10-19T09:43:57;15.18;;;13.75;;
16330;SDS011;8275;48.206;16.340;2023-10-19T09:46:33;15.68;;;14.13;;
16330;SDS011;8275;48.206;16.340;2023-10-19T09:49:06;14.85;;;13.45;;
16330;SDS011;8275;48.206;16.340;2023-10-19T09:51:38;14.13;;;12.73;;
16330;SDS011;8275;48.206;16.340;2023-10-19T09:54:31;13.77;;;12.68;;
16330;SDS011;8275;48.206;16.340;2023-10-19T09:57:16;15.07;;;13.77;;
16330;SDS011;8275;48.206;16.340;2023-10-19T09:59:54;16.25;;;12.68;;
16330;SDS011;8275;48.206;16.340;2023-10-19T10:02:36;15.88;;;13.90;;
16330;SDS011;8275;48.206;16.340;2023-10-19T10:11:01;19.58;;;14.52;;
16330;SDS011;8275;48.206;16.340;2023-10-19T10:13:43;14.13;;;12.82;;
16330;SDS011;8275;48.206;16.340;2023-10-19T10:16:17;18.08;;;14.60;;
16330;SDS011;8275;48.206;16.340;2023-10-19T10:18:50;15.63;;;14.10;;
16330;SDS011;8275;48.206;16.340;2023-10-19T10:21:25;16.77;;;15.38;;
16330;SDS011;8275;48.206;16.340;2023-10-19T10:23:57;15.40;;;13.57;;
16330;SDS011;8275;48.206;16.340;2023-10-19T10:26:27;17.88;;;16.08;;
16330;SDS011;8275;48.206;16.340;2023-10-19T10:31:50;17.13;;;15.30;;
16330;SDS011;8275;48.206;16.340;2023-10-19T10:37:11;17.77;;;15.63;;
16330;SDS011;8275;48.206;16.340;2023-10-19T10:39:41;16.10;;;14.60;;
16330;SDS011;8275;48.206;16.340;2023-10-19T10:42:12;15.70;;;14.13;;
16330;SDS011;8275;48.206;16.340;2023-10-19T10:44:42;14.43;;;13.20;;
16330;SDS011;8275;48.206;16.340;2023-10-19T10:47:15;15.77;;;14.15;;
16330;SDS011;8275;48.206;16.340;2023-10-19T10:49:50;14.65;;;13.25;;
16330;SDS011;8275;48.206;16.340;2023-10-19T10:52:28;14.20;;;12.80;;
16330;SDS011;8275;48.206;16.340;2023-10-19T10:55:06;15.60;;;14.00;;
16330;SDS011;8275;48.206;16.340;2023-10-19T10:57:38;13.63;;;12.48;;
16330;SDS011;8275;48.206;16.340;2023-10-19T11:00:09;13.70;;;12.38;;
16330;SDS011;8275;48.206;16.340;2023-10-19T11:02:42;12.88;;;11.65;;
16330;SDS011;8275;48.206;16.340;2023-10-19T11:05:15;14.60;;;13.27;;
16330;SDS011;8275;48.206;16.340;2023-10-19T11:10:36;11.82;;;10.65;;
16330;SDS011;8275;48.206;16.340;2023-10-19T11:13:05;16.33;;;12.77;;
16330;SDS011;8275;48.206;16.340;2023-10-19T11:15:35;12.70;;;11.50;;
16330;SDS011;8275;48.206;16.340;2023-10-19T11:18:05;12.32;;;11.32;;
16330;SDS011;8275;48.206;16.340;2023-10-19T11:20:36;15.85;;;13.10;;
16330;SDS011;8275;48.206;16.340;2023-10-19T11:23:04;13.23;;;11.98;;
16330;SDS011;8275;48.206;16.340;2023-10-19T11:25:33;12.48;;;11.38;;
16330;SDS011;8275;48.206;16.340;2023-10-19T11:28:02;14.18;;;12.68;;
16330;SDS011;8275;48.206;16.340;2023-10-19T11:30:45;13.25;;;12.00;;
16330;SDS011;8275;48.206;16.340;2023-10-19T11:33:15;14.48;;;12.88;;
16330;SDS011;8275;48.206;16.340;2023-10-19T11:35:49;14.77;;;13.23;;
16330;SDS011;8275;48.206;16.340;2023-10-19T11:38:18;14.05;;;12.35;;
16330;SDS011;8275;48.206;16.340;2023-10-19T11:40:47;13.57;;;12.18;;
16330;SDS011;8275;48.206;16.340;2023-10-19T11:43:15;13.13;;;11.98;;
16330;SDS011;8275;48.206;16.340;2023-10-19T11:45:45;14.20;;;12.77;;
16330;SDS011;8275;48.206;16.340;2023-10-19T11:48:14;14.52;;;13.30;;
16330;SDS011;8275;48.206;16.340;2023-10-19T11:50:42;13.13;;;11.82;;
16330;SDS011;8275;48.206;16.340;2023-10-19T11:53:12;12.82;;;11.45;;
16330;SDS011;8275;48.206;16.340;2023-10-19T11:55:41;12.23;;;11.13;;
16330;SDS011;8275;48.206;16.340;2023-10-19T11:58:10;12.80;;;11.60;;
16330;SDS011;8275;48.206;16.340;2023-10-19T12:00:40;13.07;;;11.85;;
16330;SDS011;8275;48.206;16.340;2023-10-19T12:03:10;14.15;;;12.52;;
16330;SDS011;8275;48.206;16.340;2023-10-19T12:05:38;14.18;;;12.77;;
16330;SDS011;8275;48.206;16.340;2023-10-19T12:08:08;14.55;;;12.15;;
16330;SDS011;8275;48.206;16.340;2023-10-19T12:10:38;12.02;;;10.82;;
16330;SDS011;8275;48.206;16.340;2023-10-19T12:13:07;13.50;;;11.40;;
16330;SDS011;8275;48.206;16.340;2023-10-19T12:15:36;13.48;;;11.15;;
16330;SDS011;8275;48.206;16.340;2023-10-19T12:18:04;13.10;;;11.80;;
16330;SDS011;8275;48.206;16.340;2023-10-19T12:20:34;11.65;;;10.57;;
16330;SDS011;8275;48.206;16.340;2023-10-19T12:23:03;12.73;;;11.63;;
16330;SDS011;8275;48.206;16.340;2023-10-19T12:25:32;12.02;;;10.35;;
16330;SDS011;8275;48.206;16.340;2023-10-19T12:28:20;14.02;;;11.43;;
16330;SDS011;8275;48.206;16.340;2023-10-19T12:30:51;12.20;;;10.95;;
16330;SDS011;8275;48.206;16.340;2023-10-19T12:33:20;13.30;;;12.18;;
16330;SDS011;8275;48.206;16.340;2023-10-19T12:35:48;14.30;;;12.38;;
16330;SDS011;8275;48.206;16.340;2023-10-19T12:38:18;13.25;;;11.90;;
16330;SDS011;8275;48.206;16.340;2023-10-19T12:40:47;13.77;;;12.13;;
16330;SDS011;8275;48.206;16.340;2023-10-19T12:43:17;14.77;;;11.68;;
16330;SDS011;8275;48.206;16.340;2023-10-19T12:45:50;17.58;;;14.45;;
16330;SDS011;8275;48.206;16.340;2023-10-19T12:48:20;15.52;;;13.93;;
16330;SDS011;8275;48.206;16.340;2023-10-19T12:50:48;14.95;;;13.32;;
16330;SDS011;8275;48.206;16.340;2023-10-19T12:53:17;14.23;;;12.77;;
16330;SDS011;8275;48.206;16.340;2023-10-19T12:55:48;15.32;;;13.65;;
16330;SDS011;8275;48.206;16.340;2023-10-19T12:58:16;15.35;;;13.85;;
16330;SDS011;8275;48.206;16.340;2023-10-19T13:00:46;17.17;;;15.63;;
16330;SDS011;8275;48.206;16.340;2023-10-19T13:03:16;17.58;;;15.75;;
16330;SDS011;8275;48.206;16.340;2023-10-19T13:05:45;18.08;;;15.80;;
16330;SDS011;8275;48.206;16.340;2023-10-19T13:08:15;17.77;;;16.02;;
16330;SDS011;8275;48.206;16.340;2023-10-19T13:10:46;25.17;;;19.25;;
16330;SDS011;8275;48.206;16.340;2023-10-19T13:13:18;22.20;;;20.00;;
16330;SDS011;8275;48.206;16.340;2023-10-19T13:15:50;18.48;;;16.60;;
16330;SDS011;8275;48.206;16.340;2023-10-19T13:18:21;21.08;;;18.67;;
16330;SDS011;8275;48.206;16.340;2023-10-19T13:20:54;22.58;;;18.65;;
16330;SDS011;8275;48.206;16.340;2023-10-19T13:23:24;20.33;;;18.23;;
16330;SDS011;8275;48.206;16.340;2023-10-19T13:25:52;24.88;;;18.98;;
16330;SDS011;8275;48.206;16.340;2023-10-19T13:28:24;21.38;;;17.67;;
16330;SDS011;8275;48.206;16.340;2023-10-19T13:30:53;24.17;;;17.08;;
16330;SDS011;8275;48.206;16.340;2023-10-19T13:33:23;20.30;;;17.95;;
16330;SDS011;8275;48.206;16.340;2023-10-19T13:35:52;19.77;;;17.77;;
16330;SDS011;8275;48.206;16.340;2023-10-19T13:38:21;21.05;;;19.00;;
16330;SDS011;8275;48.206;16.340;2023-10-19T13:40:50;20.48;;;18.33;;
16330;SDS011;8275;48.206;16.340;2023-10-19T13:43:20;20.02;;;18.13;;
16330;SDS011;8275;48.206;16.340;2023-10-19T13:45:49;21.88;;;18.45;;
16330;SDS011;8275;48.206;16.340;2023-10-19T13:48:19;29.52;;;18.17;;
16330;SDS011;8275;48.206;16.340;2023-10-19T13:50:49;21.27;;;19.05;;
16330;SDS011;8275;48.206;16.340;2023-10-19T13:53:19;19.55;;;15.80;;
16330;SDS011;8275;48.206;16.340;2023-10-19T13:55:48;19.77;;;16.63;;
16330;SDS011;8275;48.206;16.340;2023-10-19T13:58:16;26.23;;;17.15;;
16330;SDS011;8275;48.206;16.340;2023-10-19T14:00:45;21.63;;;19.52;;
16330;SDS011;8275;48.206;16.340;2023-10-19T14:03:15;19.40;;;17.40;;
16330;SDS011;8275;48.206;16.340;2023-10-19T14:05:45;20.38;;;16.00;;
16330;SDS011;8275;48.206;16.340;2023-10-19T14:08:16;19.48;;;17.40;;
16330;SDS011;8275;48.206;16.340;2023-10-19T14:10:46;17.02;;;15.23;;
16330;SDS011;8275;48.206;16.340;2023-10-19T14:13:15;19.08;;;17.08;;
16330;SDS011;8275;48.206;16.340;2023-10-19T14:15:44;18.23;;;14.98;;
16330;SDS011;8275;48.206;16.340;2023-10-19T14:18:12;17.83;;;15.18;;
16330;SDS011;8275;48.206;16.340;2023-10-19T14:20:41;21.65;;;17.17;;
16330;SDS011;8275;48.206;16.340;2023-10-19T14:23:10;19.17;;;17.17;;
16330;SDS011;8275;48.206;16.340;2023-10-19T14:25:41;19.35;;;16.67;;
16330;SDS011;8275;48.206;16.340;2023-10-19T14:28:11;16.02;;;14.45;;
16330;SDS011;8275;48.206;16.340;2023-10-19T14:30:39;18.60;;;16.13;;
16330;SDS011;8275;48.206;16.340;2023-10-19T14:33:08;17.60;;;15.73;;
16330;SDS011;8275;48.206;16.340;2023-10-19T14:35:38;17.30;;;14.93;;
16330;SDS011;8275;48.206;16.340;2023-10-19T14:38:09;15.95;;;14.15;;
16330;SDS011;8275;48.206;16.340;2023-10-19T14:40:41;22.38;;;17.70;;
16330;SDS011;8275;48.206;16.340;2023-10-19T14:43:14;20.48;;;16.42;;
16330;SDS011;8275;48.206;16.340;2023-10-19T14:45:43;17.10;;;14.80;;
16330;SDS011;8275;48.206;16.340;2023-10-19T14:48:11;17.27;;;14.95;;
16330;SDS011;8275;48.206;16.340;2023-10-19T14:50:41;18.13;;;16.23;;
16330;SDS011;8275;48.206;16.340;2023-10-19T14:53:10;18.05;;;15.85;;
16330;SDS011;8275;48.206;16.340;2023-10-19T14:55:39;19.33;;;16.60;;
16330;SDS011;8275;48.206;16.340;2023-10-19T14:58:11;24.77;;;17.02;;